Time;durP1;ratioP1;P1;durP2;ratioP2;P2;SDS_P1;SDS_P2;PMS_P1;PMS_P2;Temp;Humidity;BMP_temperature;BMP_pressure;BME280_temperature;BME280_humidity;BME280_pressure;Samples;Min_cycle;Max_cycle;Signal;HPM_P1;HPM_P2
2023/05/09 00:02:13;;;;;;;23.48;11.00;;;;;;;15.10;98.25;98815.38;5114422;27;20043;-92
2023/05/09 00:04:39;;;;;;;89.90;20.73;;;;;;;15.10;96.87;98812.69;5113939;28;20047;-91
2023/05/09 00:07:06;;;;;;;19.67;11.23;;;;;;;14.99;97.80;98790.91;5113196;28;20039;-92
2023/05/09 00:09:32;;;;;;;19.98;10.80;;;;;;;14.98;97.11;98782.00;5112410;28;20032;-94
2023/05/09 00:11:57;;;;;;;17.67;10.23;;;;;;;15.00;97.97;98796.16;5113838;28;20062;-93
2023/05/09 00:14:26;;;;;;;18.23;10.18;;;;;;;15.15;96.86;98807.13;5113365;28;20063;-93
2023/05/09 00:16:52;;;;;;;15.43;10.45;;;;;;;15.08;96.85;98794.97;5114312;27;20035;-93
2023/05/09 00:19:18;;;;;;;18.52;10.70;;;;;;;15.12;95.59;98788.53;5116692;27;20580;-95
2023/05/09 00:21:45;;;;;;;16.70;10.00;;;;;;;15.19;95.46;98804.25;5113270;28;20194;-91
2023/05/09 00:24:11;;;;;;;16.70;10.13;;;;;;;15.11;93.90;98782.28;5113637;27;20043;-93
2023/05/09 00:26:36;;;;;;;16.02;9.35;;;;;;;15.03;94.04;98764.81;5112694;28;20132;-94
2023/05/09 00:29:03;;;;;;;18.52;10.57;;;;;;;15.20;94.70;98791.72;5114176;28;20039;-95
2023/05/09 00:31:30;;;;;;;15.45;10.13;;;;;;;15.18;93.91;98786.44;5111866;28;20062;-94
2023/05/09 00:33:56;;;;;;;14.98;9.30;;;;;;;15.18;93.24;98772.19;5113901;28;20054;-92
2023/05/09 00:36:22;;;;;;;14.52;9.70;;;;;;;15.14;93.54;98759.88;5114564;28;20058;-94
2023/05/09 00:38:48;;;;;;;14.95;9.35;;;;;;;15.17;93.39;98770.44;5118093;27;20062;-93
2023/05/09 00:41:14;;;;;;;17.05;9.48;;;;;;;15.12;92.39;98746.53;5116752;28;20036;-94
2023/05/09 00:43:40;;;;;;;17.52;9.63;;;;;;;15.13;91.54;98753.63;5115192;28;20074;-94
2023/05/09 00:46:08;;;;;;;16.15;9.70;;;;;;;15.05;92.72;98736.16;5116754;28;20035;-95
2023/05/09 00:48:35;;;;;;;16.55;9.50;;;;;;;15.17;92.08;98747.19;5117586;28;20043;-96
2023/05/09 00:51:02;;;;;;;15.38;9.68;;;;;;;15.12;92.95;98743.00;5110051;28;20069;-96
2023/05/09 00:53:56;;;;;;;15.63;9.57;;;;;;;15.16;93.71;98750.81;5114437;28;20160;-94
2023/05/09 00:56:22;;;;;;;13.98;8.50;;;;;;;15.22;94.71;98770.22;5114831;28;20039;-95
2023/05/09 00:58:48;;;;;;;18.10;9.30;;;;;;;15.12;94.45;98757.25;5116865;27;20473;-95
2023/05/09 01:01:15;;;;;;;15.32;8.20;;;;;;;15.04;94.50;98745.16;5113225;28;20047;-96
2023/05/09 01:03:44;;;;;;;43.67;11.70;;;;;;;15.15;95.56;98764.28;5115033;28;20051;-94
2023/05/09 01:06:21;;;;;;;14.93;9.20;;;;;;;14.95;95.77;98741.09;5109721;28;20024;-95
2023/05/09 01:09:11;;;;;;;14.10;9.10;;;;;;;14.82;95.73;98724.72;5122534;28;20059;-94
2023/05/09 01:11:44;;;;;;;13.98;8.65;;;;;;;14.81;96.69;98725.63;5117066;28;20088;-94
2023/05/09 01:14:21;;;;;;;14.88;8.07;;;;;;;14.98;96.78;98743.63;5112314;28;20096;-93
2023/05/09 01:16:56;;;;;;;16.15;8.38;;;;;;;14.95;96.54;98744.63;5114345;28;20043;-94
2023/05/09 01:20:01;;;;;;;13.55;8.70;;;;;;;14.79;96.37;98717.69;5113152;28;20037;-93
2023/05/09 01:29:33;;;;;;;18.08;8.10;;;;;;;14.98;96.02;98735.59;5056484;28;20056;-92
2023/05/09 01:32:02;;;;;;;13.27;8.60;;;;;;;14.93;95.66;98727.75;5051512;28;20168;-93
2023/05/09 01:34:31;;;;;;;13.65;8.57;;;;;;;14.98;96.13;98739.16;5054912;28;20134;-93
2023/05/09 01:36:59;;;;;;;50.97;34.00;;;;;;;14.94;95.27;98728.63;5061533;28;20218;-93
2023/05/09 01:39:26;;;;;;;12.77;7.67;;;;;;;15.02;95.22;98736.31;5066743;28;20041;-93
2023/05/09 01:41:54;;;;;;;12.05;8.38;;;;;;;14.86;97.23;98736.16;5066563;28;20682;-94
2023/05/09 01:44:24;;;;;;;12.77;8.30;;;;;;;14.69;98.92;98723.53;5060270;28;20045;-94
2023/05/09 01:46:54;;;;;;;14.65;9.43;;;;;;;14.61;100.00;98726.53;5059207;28;20040;-93
2023/05/09 01:49:21;;;;;;;14.95;9.07;;;;;;;14.42;100.00;98713.06;5055457;28;20046;-94
2023/05/09 01:51:49;;;;;;;14.40;8.63;;;;;;;14.52;100.00;98722.41;5059886;28;20041;-94
2023/05/09 01:54:16;;;;;;;14.65;8.80;;;;;;;14.35;100.00;98703.56;5059767;28;20127;-94
2023/05/09 01:56:43;;;;;;;14.13;8.60;;;;;;;14.47;100.00;98713.72;5064530;28;20045;-96
2023/05/09 01:59:14;;;;;;;14.18;8.95;;;;;;;14.49;100.00;98733.25;5060994;28;20044;-95
2023/05/09 02:01:42;;;;;;;13.77;8.48;;;;;;;14.49;100.00;98732.41;5071119;28;20146;-96
2023/05/09 02:04:08;;;;;;;13.23;8.77;;;;;;;14.49;100.00;98716.34;5118820;28;20040;-95
2023/05/09 02:06:35;;;;;;;12.07;7.53;;;;;;;14.47;100.00;98715.53;5117982;28;20119;-94
2023/05/09 02:09:01;;;;;;;13.23;8.30;;;;;;;14.45;100.00;98710.25;5117999;28;20035;-95
2023/05/09 02:11:27;;;;;;;12.85;7.50;;;;;;;14.47;100.00;98713.72;5118106;28;20042;-92
2023/05/09 02:13:54;;;;;;;14.38;8.82;;;;;;;14.44;100.00;98713.84;5115908;28;20047;-94
2023/05/09 02:16:20;;;;;;;12.38;8.20;;;;;;;14.53;100.00;98734.88;5113876;28;20050;-93
2023/05/09 02:18:47;;;;;;;13.52;8.52;;;;;;;14.51;100.00;98741.25;5117458;28;20127;-94
2023/05/09 02:21:13;;;;;;;14.25;9.15;;;;;;;14.41;100.00;98718.47;5115590;28;20036;-95
2023/05/09 02:23:39;;;;;;;12.63;8.35;;;;;;;14.18;100.00;98705.16;5117892;28;20054;-93
2023/05/09 02:26:05;;;;;;;11.73;8.10;;;;;;;14.24;100.00;98711.19;5118024;28;20444;-96
2023/05/09 02:28:32;;;;;;;13.23;8.50;;;;;;;14.09;100.00;98707.34;5117318;28;20044;-94
2023/05/09 02:31:02;;;;;;;13.07;7.63;;;;;;;14.17;100.00;98731.97;5114601;28;20040;-95
2023/05/09 02:33:29;;;;;;;13.15;8.07;;;;;;;14.08;100.00;98722.53;5117336;28;20039;-95
2023/05/09 02:35:57;;;;;;;13.70;7.85;;;;;;;14.00;100.00;98705.06;5117505;28;20036;-94
2023/05/09 02:38:23;;;;;;;13.00;8.35;;;;;;;14.25;100.00;98745.00;5117208;28;20040;-95
2023/05/09 02:40:49;;;;;;;11.38;7.30;;;;;;;14.31;100.00;98734.03;5118187;28;20126;-95
2023/05/09 02:43:15;;;;;;;10.88;7.75;;;;;;;14.21;100.00;98714.00;5117308;28;20051;-95
2023/05/09 02:45:42;;;;;;;10.43;7.22;;;;;;;14.21;100.00;98705.97;5117516;28;20050;-95
2023/05/09 02:48:08;;;;;;;12.35;6.90;;;;;;;14.39;100.00;98742.63;5116865;28;20083;-96
2023/05/09 02:50:36;;;;;;;11.48;7.70;;;;;;;14.28;98.79;98712.78;5118528;28;20047;-95
2023/05/09 02:53:05;;;;;;;10.40;6.97;;;;;;;14.38;99.64;98723.03;5117645;28;20430;-95
2023/05/09 02:55:30;;;;;;;12.25;7.57;;;;;;;14.24;99.72;98711.19;5117746;28;20253;-95
2023/05/09 02:57:59;;;;;;;10.52;7.43;;;;;;;14.39;99.76;98747.97;5118897;28;20130;-94
2023/05/09 03:00:25;;;;;;;11.07;7.13;;;;;;;14.20;100.00;98714.91;5116495;28;20050;-94
2023/05/09 03:02:51;;;;;;;12.38;7.95;;;;;;;14.31;100.00;98744.75;5116290;28;20138;-94
2023/05/09 03:05:17;;;;;;;10.75;7.28;;;;;;;14.25;100.00;98747.69;5118338;28;20067;-94
2023/05/09 03:07:43;;;;;;;9.65;6.70;;;;;;;14.12;100.00;98718.78;5116356;28;20043;-93
2023/05/09 03:10:11;;;;;;;9.00;7.10;;;;;;;14.10;100.00;98722.47;5117500;28;20050;-95
2023/05/09 03:12:37;;;;;;;12.30;7.28;;;;;;;14.28;100.00;98750.25;5116592;28;20115;-95
2023/05/09 03:15:04;;;;;;;14.95;8.63;;;;;;;14.17;100.00;98735.50;5115530;28;20043;-94
2023/05/09 03:17:30;;;;;;;12.68;8.02;;;;;;;14.09;100.00;98734.94;5116336;28;20043;-95
2023/05/09 03:19:56;;;;;;;13.05;8.05;;;;;;;14.10;100.00;98747.41;5117070;28;20088;-95
2023/05/09 03:22:21;;;;;;;12.02;7.03;;;;;;;14.08;100.00;98754.63;5117265;28;20104;-93
2023/05/09 03:24:47;;;;;;;11.40;8.02;;;;;;;13.87;100.00;98729.63;5116968;28;20036;-96
2023/05/09 03:27:15;;;;;;;12.55;7.93;;;;;;;13.99;100.00;98760.34;5116757;28;20039;-95
2023/05/09 03:29:40;;;;;;;11.45;7.97;;;;;;;13.94;100.00;98751.63;5117620;28;20044;-94
2023/05/09 03:32:06;;;;;;;10.90;7.05;;;;;;;13.87;100.00;98742.13;5116820;28;20071;-95
2023/05/09 03:34:32;;;;;;;10.68;7.45;;;;;;;13.76;100.00;98727.41;5116801;28;20043;-92
2023/05/09 03:36:58;;;;;;;11.43;7.10;;;;;;;13.79;100.00;98729.06;5116947;28;20050;-94
2023/05/09 03:39:24;;;;;;;10.50;7.38;;;;;;;13.76;100.00;98716.72;5115552;28;20131;-94
2023/05/09 03:41:50;;;;;;;11.05;6.88;;;;;;;13.94;100.00;98743.63;5116640;28;20063;-93
2023/05/09 03:44:17;;;;;;;9.45;6.68;;;;;;;13.97;100.00;98756.88;5116392;28;20043;-95
2023/05/09 03:46:45;;;;;;;10.30;7.03;;;;;;;13.85;100.00;98746.66;5116146;28;20496;-94
2023/05/09 03:49:11;;;;;;;10.98;7.22;;;;;;;13.76;100.00;98740.75;5116058;28;20118;-94
2023/05/09 03:51:37;;;;;;;11.77;7.18;;;;;;;13.75;100.00;98744.38;5116454;28;20088;-96
2023/05/09 03:54:02;;;;;;;11.65;6.82;;;;;;;13.60;100.00;98731.63;5116108;28;20039;-94
2023/05/09 03:56:28;;;;;;;9.52;7.07;;;;;;;13.75;100.00;98762.22;5116306;28;20048;-95
2023/05/09 03:58:54;;;;;;;11.45;7.25;;;;;;;13.52;100.00;98739.09;5095089;28;20448;-95
2023/05/09 04:01:21;;;;;;;12.68;8.10;;;;;;;13.53;100.00;98743.47;5115617;28;20492;-94
2023/05/09 04:03:47;;;;;;;13.60;6.68;;;;;;;13.64;100.00;98757.31;5116871;28;20045;-94
2023/05/09 04:06:14;;;;;;;10.40;6.82;;;;;;;13.51;100.00;98735.53;5116381;28;20054;-93
2023/05/09 04:08:41;;;;;;;13.20;7.18;;;;;;;13.56;100.00;98741.56;5116780;28;20063;-95
2023/05/09 04:11:07;;;;;;;13.35;7.47;;;;;;;13.65;100.00;98736.78;5116659;28;20055;-94
2023/05/09 04:13:33;;;;;;;9.18;6.38;;;;;;;13.78;100.00;98746.06;5116541;28;20071;-96
2023/05/09 04:16:00;;;;;;;11.57;7.15;;;;;;;13.60;100.00;98734.31;5116365;28;20527;-93
2023/05/09 04:18:27;;;;;;;11.65;7.43;;;;;;;13.52;100.00;98739.94;5114393;28;20067;-95
2023/05/09 04:20:53;;;;;;;11.82;6.93;;;;;;;13.52;100.00;98750.63;5116202;28;20043;-94
2023/05/09 04:23:19;;;;;;;10.25;7.05;;;;;;;13.55;100.00;98771.91;5116122;28;20101;-95
2023/05/09 04:25:46;;;;;;;13.38;7.78;;;;;;;13.28;100.00;98747.13;5115763;28;20039;-95
2023/05/09 04:28:12;;;;;;;10.95;7.72;;;;;;;13.43;100.00;98771.50;5115598;28;20389;-96
2023/05/09 04:30:38;;;;;;;11.45;8.45;;;;;;;13.18;100.00;98744.81;5117200;28;20046;-94
2023/05/09 04:33:04;;;;;;;10.98;7.60;;;;;;;13.27;100.00;98745.34;5116637;28;20043;-95
2023/05/09 04:35:31;;;;;;;9.75;7.03;;;;;;;13.40;100.00;98740.41;5116753;28;20691;-94
2023/05/09 04:37:57;;;;;;;10.57;6.57;;;;;;;13.64;100.00;98759.97;5117737;28;20039;-94
2023/05/09 04:40:23;;;;;;;11.57;6.82;;;;;;;13.81;100.00;98769.09;5118042;28;20385;-94
2023/05/09 04:42:49;;;;;;;11.73;7.25;;;;;;;13.79;100.00;98770.97;5116450;28;20039;-94
2023/05/09 04:45:15;;;;;;;11.32;7.22;;;;;;;13.64;100.00;98754.63;5117010;28;20050;-94
2023/05/09 04:47:41;;;;;;;10.98;7.13;;;;;;;13.91;100.00;98767.81;5116342;28;20071;-95
2023/05/09 04:50:07;;;;;;;11.07;6.63;;;;;;;13.86;100.00;98745.75;5116969;28;20020;-94
2023/05/09 04:52:34;;;;;;;10.45;6.20;;;;;;;13.94;100.00;98765.91;5116811;28;20048;-94
2023/05/09 04:55:00;;;;;;;10.23;7.32;;;;;;;13.82;100.00;98779.75;5116548;28;20047;-94
2023/05/09 04:57:26;;;;;;;11.18;7.20;;;;;;;13.85;100.00;98771.59;5116280;28;20035;-94
2023/05/09 04:59:52;;;;;;;11.50;7.60;;;;;;;13.72;100.00;98754.31;5116286;28;20612;-95
2023/05/09 05:02:19;;;;;;;11.57;6.75;;;;;;;13.87;100.00;98772.41;5115674;28;20039;-94
2023/05/09 05:04:45;;;;;;;11.57;6.70;;;;;;;14.05;100.00;98786.84;5115390;28;20063;-94
2023/05/09 05:07:11;;;;;;;10.48;7.13;;;;;;;14.44;99.64;98761.16;5114910;28;20059;-95
2023/05/09 05:09:39;;;;;;;8.82;6.45;;;;;;;14.87;96.86;98760.16;5115886;28;20039;-94
2023/05/09 05:12:06;;;;;;;9.75;5.80;;;;;;;15.11;95.12;98768.03;5119365;28;20039;-93
2023/05/09 05:14:32;;;;;;;8.98;6.15;;;;;;;15.10;93.89;98734.16;5119460;28;20039;-94
2023/05/09 05:16:58;;;;;;;9.98;6.40;;;;;;;15.22;93.29;98765.72;5119485;28;20447;-94
2023/05/09 05:19:24;;;;;;;9.98;6.82;;;;;;;15.25;94.07;98770.09;5119283;28;20044;-94
2023/05/09 05:21:49;;;;;;;9.50;6.35;;;;;;;15.42;95.06;98778.22;5118799;28;20039;-94
2023/05/09 05:24:15;;;;;;;9.40;6.25;;;;;;;15.40;93.46;98769.38;5119178;28;20054;-94
2023/05/09 05:26:43;;;;;;;9.88;6.47;;;;;;;15.72;92.13;98775.94;5118422;28;20044;-93
2023/05/09 05:29:08;;;;;;;10.73;6.40;;;;;;;16.09;90.54;98767.88;5119616;28;20026;-92
2023/05/09 05:31:35;;;;;;;8.98;6.47;;;;;;;16.13;88.13;98756.94;5119232;28;20043;-96
2023/05/09 05:34:00;;;;;;;10.43;6.22;;;;;;;16.10;89.88;98754.41;5118723;28;20047;-94
2023/05/09 05:36:26;;;;;;;10.52;6.90;;;;;;;16.19;90.03;98764.66;5120276;28;20051;-93
2023/05/09 05:38:52;;;;;;;8.38;6.47;;;;;;;16.19;88.06;98764.66;5121170;28;20138;-95
2023/05/09 05:41:18;;;;;;;9.18;6.20;;;;;;;16.36;87.99;98782.63;5121704;28;20090;-94
2023/05/09 05:43:46;;;;;;;9.73;6.40;;;;;;;16.04;88.37;98767.25;5124562;28;20406;-95
2023/05/09 05:46:12;;;;;;;9.90;6.22;;;;;;;16.47;87.40;98749.00;5122873;28;20047;-96
2023/05/09 05:48:37;;;;;;;8.25;6.40;;;;;;;16.57;85.00;98748.44;5124898;28;20066;-95
2023/05/09 05:51:04;;;;;;;10.93;6.00;;;;;;;16.57;83.86;98739.53;5123592;28;20036;-96
2023/05/09 05:53:30;;;;;;;7.30;5.88;;;;;;;16.79;83.52;98750.00;5123903;28;20047;-95
2023/05/09 05:55:55;;;;;;;10.55;5.97;;;;;;;17.19;83.44;98772.06;5124637;28;20092;-94
2023/05/09 05:58:21;;;;;;;11.90;6.38;;;;;;;17.35;82.21;98774.78;5121833;28;20043;-93
2023/05/09 06:00:50;;;;;;;8.02;5.60;;;;;;;17.40;82.51;98786.19;5115423;28;20047;-93
2023/05/09 06:03:16;;;;;;;;;;;;;;;17.58;80.00;98785.16;5120988;28;20048;-94
2023/05/09 06:05:42;;;;;;;8.43;5.80;;;;;;;17.60;78.12;98739.38;5121913;28;19920;-95
2023/05/09 06:08:09;;;;;;;8.38;6.15;;;;;;;18.09;76.80;98771.56;5121924;28;20078;-94
2023/05/09 06:10:35;;;;;;;8.77;6.18;;;;;;;17.93;75.99;98736.59;5121988;28;20051;-93
2023/05/09 06:13:01;;;;;;;7.22;5.20;;;;;;;17.91;76.33;98743.03;5120011;28;20040;-95
2023/05/09 06:15:26;;;;;;;8.45;5.90;;;;;;;18.09;76.40;98741.13;5119500;28;20051;-96
2023/05/09 06:17:54;;;;;;;8.82;5.88;;;;;;;18.06;76.48;98743.03;5120385;28;20043;-94
2023/05/09 06:20:20;;;;;;;8.18;5.82;;;;;;;18.11;75.79;98750.81;5119277;28;20427;-96
2023/05/09 06:22:46;;;;;;;9.50;5.88;;;;;;;18.37;75.46;98764.59;5119525;28;20500;-95
2023/05/09 06:25:12;;;;;;;12.68;5.93;;;;;;;18.19;74.90;98756.59;5119847;28;20054;-95
2023/05/09 06:27:38;;;;;;;7.70;5.82;;;;;;;18.33;75.08;98731.59;5119668;28;20071;-94
2023/05/09 06:30:05;;;;;;;8.82;6.03;;;;;;;18.44;73.66;98749.78;5118900;28;20126;-94
2023/05/09 06:32:31;;;;;;;9.15;6.22;;;;;;;18.51;74.76;98753.84;5119999;28;20044;-95
2023/05/09 06:34:58;;;;;;;8.77;5.95;;;;;;;18.52;72.28;98728.66;5125535;28;20116;-96
2023/05/09 06:37:25;;;;;;;9.32;5.95;;;;;;;18.44;72.58;98726.41;5128176;28;20044;-95
2023/05/09 06:39:51;;;;;;;8.32;5.30;;;;;;;18.20;75.12;98752.13;5127793;28;20424;-95
2023/05/09 06:42:17;;;;;;;8.05;5.65;;;;;;;18.24;74.06;98729.44;5121667;28;20043;-96
2023/05/09 06:44:43;;;;;;;8.43;6.30;;;;;;;18.22;76.20;98736.75;5126776;28;20058;-96
2023/05/09 06:47:10;;;;;;;9.35;6.00;;;;;;;18.30;73.53;98744.34;5125722;28;20138;-95
2023/05/09 06:49:36;;;;;;;8.27;5.40;;;;;;;18.62;71.09;98735.22;5126943;28;20040;-95
2023/05/09 06:52:03;;;;;;;7.65;5.60;;;;;;;18.96;69.86;98741.28;5120317;28;20055;-95
2023/05/09 06:54:29;;;;;;;9.13;5.82;;;;;;;18.84;70.82;98728.53;5125463;28;20507;-95
2023/05/09 06:56:55;;;;;;;7.97;5.85;;;;;;;18.75;69.94;98715.63;5126293;28;20117;-96
2023/05/09 06:59:24;;;;;;;8.98;5.90;;;;;;;18.52;72.00;98720.59;5126573;28;20040;-94
2023/05/09 07:01:50;;;;;;;9.55;5.60;;;;;;;18.76;70.22;98722.72;5118629;28;20568;-94
2023/05/09 07:04:16;;;;;;;9.52;5.70;;;;;;;19.17;69.04;98754.34;5120904;28;20138;-94
2023/05/09 07:06:42;;;;;;;9.18;6.07;;;;;;;19.11;71.21;98723.28;5120062;28;20043;-95
2023/05/09 07:09:09;;;;;;;9.30;5.80;;;;;;;19.22;70.47;98752.25;5126086;28;20047;-95
2023/05/09 07:11:36;;;;;;;10.05;5.80;;;;;;;19.41;69.35;98728.56;5121724;28;20059;-94
2023/05/09 07:14:02;;;;;;;7.85;6.18;;;;;;;19.81;67.80;98761.06;5121271;28;20104;-96
2023/05/09 07:16:28;;;;;;;11.02;6.45;;;;;;;19.91;67.00;98742.47;5122926;28;20439;-94
2023/05/09 07:18:54;;;;;;;6.72;5.25;;;;;;;20.05;63.81;98728.91;5118992;28;20042;-94
2023/05/09 07:21:20;;;;;;;7.90;6.18;;;;;;;20.19;66.18;98746.00;5119158;28;20047;-94
2023/05/09 07:23:46;;;;;;;10.13;6.70;;;;;;;20.45;65.80;98730.75;5118498;28;20023;-95
2023/05/09 07:26:13;;;;;;;10.25;6.10;;;;;;;20.35;65.25;98740.47;5126272;28;20051;-94
2023/05/09 07:28:39;;;;;;;9.30;6.40;;;;;;;20.21;64.13;98730.56;5124022;28;20043;-95
2023/05/09 07:31:05;;;;;;;9.68;6.20;;;;;;;19.68;65.73;98728.59;5115421;28;20044;-95
2023/05/09 07:33:31;;;;;;;8.40;5.68;;;;;;;20.22;64.84;98760.19;5115665;28;20047;-95
2023/05/09 07:35:58;;;;;;;10.90;6.03;;;;;;;20.19;63.64;98733.41;5116341;28;20043;-93
2023/05/09 07:38:23;;;;;;;7.95;6.32;;;;;;;20.51;63.30;98728.53;5116276;28;20040;-94
2023/05/09 07:40:49;;;;;;;7.50;5.90;;;;;;;20.71;60.94;98712.81;5116343;28;20044;-95
2023/05/09 07:43:17;;;;;;;10.30;7.10;;;;;;;20.95;62.22;98755.28;5116338;28;20373;-95
2023/05/09 07:45:42;;;;;;;10.40;6.20;;;;;;;20.81;60.77;98735.50;5116998;28;20493;-95
2023/05/09 07:48:08;;;;;;;7.05;5.70;;;;;;;20.98;61.28;98747.84;5117153;28;20131;-95
2023/05/09 07:50:34;;;;;;;8.38;5.82;;;;;;;20.80;58.78;98758.09;5116707;28;20050;-95
2023/05/09 07:53:00;;;;;;;9.20;6.00;;;;;;;20.55;59.67;98729.16;5116328;28;20039;-94
2023/05/09 07:55:26;;;;;;;8.32;5.63;;;;;;;20.79;57.94;98723.91;5116547;28;20040;-92
2023/05/09 07:57:52;;;;;;;9.15;6.25;;;;;;;21.08;58.27;98729.13;5116311;28;20389;-94
2023/05/09 08:00:22;;;;;;;8.60;5.80;;;;;;;21.22;58.88;98752.47;5118338;28;20143;-95
2023/05/09 08:02:49;;;;;;;8.63;5.68;;;;;;;21.24;58.66;98745.13;5120212;28;20044;-95
2023/05/09 08:05:15;;;;;;;8.70;5.88;;;;;;;21.28;58.71;98728.56;5118442;28;20044;-96
2023/05/09 08:07:41;;;;;;;8.52;5.70;;;;;;;20.65;60.66;98724.88;5117995;28;20386;-95
2023/05/09 08:10:08;;;;;;;7.82;5.43;;;;;;;21.14;56.90;98723.28;5119196;28;20060;-93
2023/05/09 08:12:34;;;;;;;8.48;5.68;;;;;;;21.56;57.36;98709.50;5117818;28;20043;-95
2023/05/09 08:15:00;;;;;;;7.70;5.15;;;;;;;21.78;54.28;98725.91;5118045;28;20412;-94
2023/05/09 08:17:27;;;;;;;7.65;5.53;;;;;;;21.94;53.24;98734.59;5115951;28;20044;-94
2023/05/09 08:19:53;;;;;;;7.57;5.85;;;;;;;21.92;54.95;98705.91;5115716;28;20035;-95
2023/05/09 08:22:19;;;;;;;7.35;5.60;;;;;;;22.25;52.54;98715.22;5115516;28;20040;-94
2023/05/09 08:24:45;;;;;;;7.68;5.47;;;;;;;22.50;51.77;98708.78;5117720;28;20044;-95
2023/05/09 08:27:12;;;;;;;8.27;5.60;;;;;;;22.58;53.07;98714.50;5117398;28;20519;-94
2023/05/09 08:29:38;;;;;;;7.72;5.43;;;;;;;22.57;51.89;98699.19;5115847;28;20063;-93
2023/05/09 08:32:04;;;;;;;8.45;5.60;;;;;;;22.54;51.67;98708.44;5115418;28;20489;-93
2023/05/09 08:34:33;;;;;;;7.53;5.20;;;;;;;22.52;52.44;98696.00;5115403;28;20053;-94
2023/05/09 08:36:59;;;;;;;8.68;5.72;;;;;;;22.22;53.32;98710.88;5116789;28;20447;-95
2023/05/09 08:39:25;;;;;;;10.40;5.60;;;;;;;22.54;54.01;98721.97;5115438;28;20535;-94
2023/05/09 08:41:52;;;;;;;10.40;5.78;;;;;;;22.49;52.93;98709.78;5115604;28;20053;-95
2023/05/09 08:44:20;;;;;;;8.30;5.85;;;;;;;22.34;53.70;98688.28;5115304;28;20050;-94
2023/05/09 08:46:48;;;;;;;8.40;5.75;;;;;;;22.75;51.53;98702.34;5115076;28;20043;-92
2023/05/09 08:49:15;;;;;;;10.55;5.78;;;;;;;22.76;51.57;98721.16;5113766;28;20044;-94
2023/05/09 08:51:42;;;;;;;10.82;5.90;;;;;;;22.57;52.41;98715.44;5115837;28;20044;-94
2023/05/09 08:54:10;;;;;;;7.63;5.75;;;;;;;22.48;52.78;98702.63;5115353;28;20139;-94
2023/05/09 08:56:36;;;;;;;9.00;5.65;;;;;;;22.87;51.11;98722.19;5115195;28;20044;-93
2023/05/09 08:59:04;;;;;;;10.93;6.22;;;;;;;23.06;51.51;98700.78;5115098;28;20055;-95
2023/05/09 09:01:33;;;;;;;9.17;6.30;;;;;;;21.97;50.21;98714.56;5115628;28;20044;-95
2023/05/09 09:04:00;;;;;;;9.65;6.18;;;;;;;21.83;54.15;98714.72;5115391;28;20804;-94
2023/05/09 09:06:27;;;;;;;9.00;5.97;;;;;;;22.37;51.13;98694.47;5115199;28;20089;-94
2023/05/09 09:08:56;;;;;;;8.80;5.95;;;;;;;22.62;50.01;98699.72;5114850;28;20035;-94
2023/05/09 09:11:22;;;;;;;10.00;6.00;;;;;;;23.08;49.08;98703.41;5114713;28;20138;-95
2023/05/09 09:13:50;;;;;;;8.43;6.03;;;;;;;23.01;49.26;98707.56;5114769;28;20051;-94
2023/05/09 09:16:19;;;;;;;8.17;5.77;;;;;;;23.16;49.18;98690.06;5114445;28;20047;-94
2023/05/09 09:18:46;;;;;;;8.23;6.00;;;;;;;22.90;50.95;98706.56;5114381;28;20301;-93
2023/05/09 09:21:15;;;;;;;11.73;6.10;;;;;;;23.10;49.21;98701.44;5114605;28;20039;-92
2023/05/09 09:23:42;;;;;;;8.48;6.22;;;;;;;22.78;49.90;98691.25;5114292;28;20040;-93
2023/05/09 09:26:10;;;;;;;9.30;6.38;;;;;;;22.53;48.72;98703.13;5114260;28;20027;-96
2023/05/09 09:28:35;;;;;;;9.55;6.25;;;;;;;22.70;49.33;98666.56;5114739;28;20546;-94
2023/05/09 09:31:17;;;;;;;9.00;6.03;;;;;;;23.22;49.98;98688.72;5114676;28;20044;-91
2023/05/09 09:33:43;;;;;;;9.02;5.95;;;;;;;23.42;47.88;98671.69;5107654;28;20039;-94
2023/05/09 09:36:09;;;;;;;9.48;6.80;;;;;;;23.85;48.57;98660.00;5113806;28;20096;-94
2023/05/09 09:38:40;;;;;;;9.95;6.10;;;;;;;23.47;48.04;98672.19;5114159;28;20097;-94
2023/05/09 09:41:06;;;;;;;11.25;6.88;;;;;;;23.69;48.44;98664.97;5114806;28;20044;-92
2023/05/09 09:43:33;;;;;;;11.77;6.13;;;;;;;23.40;47.63;98643.81;5114752;28;20402;-93
2023/05/09 09:46:00;;;;;;;10.80;6.70;;;;;;;22.88;49.12;98631.72;5115040;28;20127;-93
2023/05/09 09:48:29;;;;;;;10.13;6.88;;;;;;;23.11;46.75;98654.31;5114643;28;20044;-94
2023/05/09 09:50:55;;;;;;;9.88;6.95;;;;;;;22.88;47.12;98664.25;5115256;28;20040;-93
2023/05/09 09:53:22;;;;;;;8.95;6.55;;;;;;;22.99;46.71;98637.16;5114896;28;20545;-92
2023/05/09 09:55:49;;;;;;;9.07;6.63;;;;;;;23.12;45.94;98656.91;5111502;28;20046;-93
2023/05/09 09:58:17;;;;;;;11.52;7.07;;;;;;;23.32;43.84;98627.31;5118482;28;20071;-93
2023/05/09 10:00:45;;;;;;;12.38;6.88;;;;;;;23.52;45.17;98641.94;5117883;28;20039;-94
2023/05/09 10:03:15;;;;;;;16.17;7.65;;;;;;;23.10;47.35;98631.75;5118075;28;20080;-93
2023/05/09 10:05:41;;;;;;;10.98;6.72;;;;;;;23.70;45.61;98634.13;5118077;28;20053;-93
2023/05/09 10:08:08;;;;;;;13.98;7.13;;;;;;;24.06;44.62;98618.47;5117568;28;20477;-94
2023/05/09 10:10:35;;;;;;;10.80;7.32;;;;;;;24.24;43.27;98603.31;5117606;28;20114;-95
2023/05/09 10:13:03;;;;;;;11.55;7.10;;;;;;;24.66;43.13;98626.91;5119087;28;20047;-92
2023/05/09 10:15:30;;;;;;;9.98;7.15;;;;;;;24.82;43.22;98632.75;5117783;28;20541;-94
2023/05/09 10:17:59;;;;;;;11.90;6.97;;;;;;;24.37;43.74;98622.13;5118097;28;20397;-94
2023/05/09 10:20:27;;;;;;;9.70;6.88;;;;;;;23.83;44.20;98610.41;5117302;28;20036;-94
2023/05/09 10:22:56;;;;;;;11.73;7.70;;;;;;;23.15;44.76;98618.69;5117389;28;20071;-96
2023/05/09 10:25:27;;;;;;;11.38;7.22;;;;;;;23.12;44.64;98601.81;5124819;28;20604;-96
2023/05/09 10:27:55;;;;;;;11.10;7.45;;;;;;;23.58;41.24;98601.56;5125180;28;20039;-95
2023/05/09 10:30:26;;;;;;;10.82;7.55;;;;;;;22.78;44.67;98642.44;5119952;28;20044;-95
2023/05/09 10:32:53;;;;;;;9.70;7.45;;;;;;;22.48;46.62;98607.78;5118889;28;20066;-94
2023/05/09 10:35:25;;;;;;;16.10;8.30;;;;;;;23.20;47.56;98614.72;5117816;28;20043;-94
2023/05/09 10:37:54;;;;;;;14.68;9.32;;;;;;;23.75;46.20;98608.34;5117529;28;20138;-94
2023/05/09 10:40:21;;;;;;;15.43;8.32;;;;;;;24.26;46.86;98605.91;5117652;28;20050;-94
2023/05/09 10:42:47;;;;;;;12.88;8.02;;;;;;;24.38;43.20;98607.56;5119011;28;20477;-95
2023/05/09 10:45:13;;;;;;;13.35;8.45;;;;;;;24.45;43.51;98587.00;5118251;28;20043;-94
2023/05/09 10:47:41;;;;;;;14.38;8.65;;;;;;;24.45;44.30;98600.59;5117467;28;20374;-95
2023/05/09 10:50:09;;;;;;;12.02;8.13;;;;;;;24.67;43.50;98601.47;5117341;28;20047;-94
2023/05/09 10:53:07;;;;;;;13.10;8.57;;;;;;;25.02;42.61;98604.63;5117333;28;20044;-94
2023/05/09 10:55:38;;;;;;;14.70;8.20;;;;;;;25.03;42.60;98575.56;5117191;28;20039;-96
2023/05/09 10:58:22;;;;;;;14.23;8.45;;;;;;;24.82;42.28;98597.38;5110148;28;20382;-94
2023/05/09 11:00:50;;;;;;;19.50;9.32;;;;;;;24.89;41.66;98573.22;5100637;28;20070;-96
2023/05/09 11:03:19;;;;;;;13.15;8.90;;;;;;;25.13;43.05;98576.44;5100413;28;20040;-95
2023/05/09 11:05:46;;;;;;;12.93;8.52;;;;;;;25.27;40.61;98572.53;5107026;28;20043;-93
2023/05/09 11:08:22;;;;;;;13.63;8.85;;;;;;;25.19;40.65;98559.59;5118853;28;20040;-94
2023/05/09 11:10:48;;;;;;;12.95;7.85;;;;;;;25.10;38.08;98584.91;5118613;28;20462;-94
2023/05/09 11:13:18;;;;;;;15.15;9.13;;;;;;;25.05;38.42;98553.66;5116775;28;20035;-94
2023/05/09 11:16:03;;;;;;;14.40;9.10;;;;;;;25.17;39.15;98558.00;5116859;28;20085;-95
2023/05/09 11:18:31;;;;;;;16.25;9.73;;;;;;;25.09;38.60;98571.44;5117985;28;20036;-95
2023/05/09 11:20:57;;;;;;;14.85;8.80;;;;;;;24.58;39.68;98554.19;5116676;28;20039;-95
2023/05/09 11:23:28;;;;;;;15.65;9.02;;;;;;;24.84;40.57;98564.63;5116567;28;20511;-93
2023/05/09 11:26:04;;;;;;;15.45;8.80;;;;;;;25.08;38.87;98550.66;5117042;28;20043;-96
2023/05/09 11:28:31;;;;;;;13.95;9.48;;;;;;;24.99;38.53;98541.47;5117805;28;20028;-96
2023/05/09 11:31:09;;;;;;;16.70;9.25;;;;;;;25.35;38.28;98563.66;5116729;28;20048;-95
2023/05/09 11:33:36;;;;;;;12.93;8.75;;;;;;;25.34;38.20;98540.16;5116812;28;20067;-96
2023/05/09 11:36:17;;;;;;;14.98;8.68;;;;;;;25.43;35.15;98544.75;5117111;28;20134;-96